Terminal Aerodrome Forecast
Issued by NWS St Louis, MO

Home | Current Version | Previous Version | Text Only | Print | Product List | Glossary On
Versions: 1 2 3 4 5 6 7 8 9 10 11 12 13 14 15 16 17 18 19 20 21 22
000
FTUS43 KLSX 020727 AAA
TAFCOU
TAF AMD
KCOU 020727Z 0207/0306 05008KT P6SM VCSH OVC005
     FM020900 05008KT 5SM BR OVC008
     FM021500 03009KT P6SM OVC020
     FM022100 36009KT P6SM BKN035
     FM030100 36005KT P6SM SCT035=

USA.gov is the U.S. government's official web portal to all federal, state and local government web resources and services.